Faith, SD

4:23 PM MST on December 06, 2016 (GMT -0700)
Philip | | Change Station
Active Advisory: Wind Chill Advisory Active Notice: Local Storm Report

Elev 2208 ft 44.05 °N, 101.60 °W | Updated 28 minutes ago

Clear
Clear
13 °F
Feels Like -4 °F
N
18
Wind Variable Wind from NW
Gusts 31 mph

Today
High -- | Low -- °F
--% Chance of Precip.
Yesterday
High -- | Low -- °F
Precip. -- in
Pressure 30.16 in
Visibility 10.0 miles
Clouds Clear
Windchill -4 °F
Dew Point 2 °F
Humidity 62%
Rainfall 0.00 in
Snow Depth Not available.
7:12 AM 4:06 PM
Waxing Crescent, 46% visible
METAR KPHP 062255Z AUTO 31016G27KT 10SM CLR M11/M17 A3005 RMK AO2 PK WND 31028/2209 SLP213 T11061167
Pressure 30.16 in
Visibility 10.0 miles
Clouds Clear
Windchill -4 °F
Dew Point 2 °F
Humidity 62%
Rainfall 0.00 in
Snow Depth Not available.
7:12 AM 4:06 PM
Waxing Crescent, 46% visible
METAR KPHP 062255Z AUTO 31016G27KT 10SM CLR M11/M17 A3005 RMK AO2 PK WND 31028/2209 SLP213 T11061167

10-Day Weather Forecast

Almanac

Astronomy

Dec. 06, 2016 Rise Set
Actual Time
Civil Twilight
Nautical Twilight
Astronomical Twilight
Moon
Length of Visible Light
Length of Day
Tomorrow will be .
, % of the Moon is Illuminated

Today's Extremes

State Highs State Lows

Community

WunderPhotos

Upload Photos

1,956,044 photos uploaded!

WunderBlog® & News

Nearby

Air Quality

  Air Quality AQ Index Pollutant
Not available.

Snow Depth

Station Depth Elevation

Earthquake Activity

City Distance Mag. Time & Date
Minimum magnitude displayed is 2.5.

Coastal Water Temperatures

Place Temperature

Stations

Nearby Weather Stations

Station Location Temp. Windchill Dew Point Humidity Wind Precip. Elev Updated Type
                   

Watches & Warnings

Wind Chill Advisory
Issued: 2:54 PM MST Dec. 6, 2016 – National Weather Service

... Wind Chill Advisory in effect from 9 PM this evening to noon
MST Wednesday...
... Winter Weather Advisory is cancelled...

The National Weather Service in Rapid City has issued a Wind
Chill Advisory... which is in effect from 9 PM this evening to
noon MST Wednesday. The Winter Weather Advisory has been
cancelled.

* Wind chill values will drop to 20 below to 30 below zero late
tonight through Wednesday morning.

* Other impacts... patchy blowing snow through early this evening.

Precautionary/preparedness actions...

A Wind Chill Advisory means the combination of strong winds and
cold temperatures will create dangerously low wind chill values.
If you go outside... cover all parts of your body... especially
your head... face... and hands.